sensor_id;sensor_type;location;lat;lon;timestamp;P1;durP1;ratioP1;P2;durP2;ratioP2
14907;SDS011;7545;52.092;7.006;2023-05-15T00:01:42;15.18;;;13.20;;
14907;SDS011;7545;52.092;7.006;2023-05-15T00:04:08;17.35;;;14.50;;
14907;SDS011;7545;52.092;7.006;2023-05-15T00:06:33;17.35;;;13.80;;
14907;SDS011;7545;52.092;7.006;2023-05-15T00:09:00;17.77;;;13.90;;
14907;SDS011;7545;52.092;7.006;2023-05-15T00:11:25;16.75;;;13.38;;
14907;SDS011;7545;52.092;7.006;2023-05-15T00:13:52;19.05;;;14.40;;
14907;SDS011;7545;52.092;7.006;2023-05-15T00:16:18;21.63;;;15.85;;
14907;SDS011;7545;52.092;7.006;2023-05-15T00:18:43;17.13;;;14.50;;
14907;SDS011;7545;52.092;7.006;2023-05-15T00:21:09;21.35;;;15.65;;
14907;SDS011;7545;52.092;7.006;2023-05-15T00:23:35;20.95;;;16.20;;
14907;SDS011;7545;52.092;7.006;2023-05-15T00:26:01;19.50;;;15.38;;
14907;SDS011;7545;52.092;7.006;2023-05-15T00:28:26;21.60;;;15.20;;
14907;SDS011;7545;52.092;7.006;2023-05-15T00:30:52;20.77;;;14.95;;
14907;SDS011;7545;52.092;7.006;2023-05-15T00:33:17;17.83;;;14.70;;
14907;SDS011;7545;52.092;7.006;2023-05-15T00:35:43;21.45;;;15.48;;
14907;SDS011;7545;52.092;7.006;2023-05-15T00:38:09;16.23;;;14.25;;
14907;SDS011;7545;52.092;7.006;2023-05-15T00:40:35;21.60;;;14.77;;
14907;SDS011;7545;52.092;7.006;2023-05-15T00:43:02;18.30;;;13.27;;
14907;SDS011;7545;52.092;7.006;2023-05-15T00:45:29;19.55;;;14.68;;
14907;SDS011;7545;52.092;7.006;2023-05-15T00:47:55;21.05;;;15.43;;
14907;SDS011;7545;52.092;7.006;2023-05-15T00:50:22;21.73;;;15.70;;
14907;SDS011;7545;52.092;7.006;2023-05-15T00:52:48;19.23;;;15.65;;
14907;SDS011;7545;52.092;7.006;2023-05-15T00:55:15;18.60;;;14.40;;
14907;SDS011;7545;52.092;7.006;2023-05-15T00:57:40;21.15;;;14.68;;
14907;SDS011;7545;52.092;7.006;2023-05-15T01:00:08;18.98;;;15.82;;
14907;SDS011;7545;52.092;7.006;2023-05-15T01:02:35;18.73;;;14.43;;
14907;SDS011;7545;52.092;7.006;2023-05-15T01:05:01;19.73;;;14.90;;
14907;SDS011;7545;52.092;7.006;2023-05-15T01:07:29;20.88;;;15.23;;
14907;SDS011;7545;52.092;7.006;2023-05-15T01:10:01;21.13;;;15.80;;
14907;SDS011;7545;52.092;7.006;2023-05-15T01:12:28;21.77;;;15.48;;
14907;SDS011;7545;52.092;7.006;2023-05-15T01:14:56;21.40;;;16.67;;
14907;SDS011;7545;52.092;7.006;2023-05-15T01:17:22;16.98;;;14.07;;
14907;SDS011;7545;52.092;7.006;2023-05-15T01:19:48;22.65;;;16.05;;
14907;SDS011;7545;52.092;7.006;2023-05-15T01:25:08;22.17;;;17.08;;
14907;SDS011;7545;52.092;7.006;2023-05-15T01:27:55;19.05;;;15.15;;
14907;SDS011;7545;52.092;7.006;2023-05-15T01:30:29;20.35;;;15.40;;
14907;SDS011;7545;52.092;7.006;2023-05-15T01:35:40;20.50;;;16.02;;
14907;SDS011;7545;52.092;7.006;2023-05-15T01:38:26;22.55;;;15.25;;
14907;SDS011;7545;52.092;7.006;2023-05-15T01:41:01;21.95;;;16.52;;
14907;SDS011;7545;52.092;7.006;2023-05-15T01:43:31;25.45;;;16.20;;
14907;SDS011;7545;52.092;7.006;2023-05-15T01:45:59;23.25;;;17.13;;
14907;SDS011;7545;52.092;7.006;2023-05-15T01:48:29;22.65;;;16.40;;
14907;SDS011;7545;52.092;7.006;2023-05-15T01:51:00;21.73;;;16.35;;
14907;SDS011;7545;52.092;7.006;2023-05-15T01:53:31;20.52;;;17.02;;
14907;SDS011;7545;52.092;7.006;2023-05-15T01:55:59;20.60;;;16.08;;
14907;SDS011;7545;52.092;7.006;2023-05-15T01:58:26;21.80;;;17.10;;
14907;SDS011;7545;52.092;7.006;2023-05-15T02:00:52;24.15;;;17.30;;
14907;SDS011;7545;52.092;7.006;2023-05-15T02:03:19;22.75;;;16.77;;
14907;SDS011;7545;52.092;7.006;2023-05-15T02:05:45;25.33;;;17.23;;
14907;SDS011;7545;52.092;7.006;2023-05-15T02:08:12;25.77;;;16.85;;
14907;SDS011;7545;52.092;7.006;2023-05-15T02:10:39;22.67;;;16.17;;
14907;SDS011;7545;52.092;7.006;2023-05-15T02:13:08;23.38;;;17.17;;
14907;SDS011;7545;52.092;7.006;2023-05-15T02:15:35;23.15;;;17.98;;
14907;SDS011;7545;52.092;7.006;2023-05-15T02:18:01;22.48;;;16.70;;
14907;SDS011;7545;52.092;7.006;2023-05-15T02:20:27;26.85;;;18.40;;
14907;SDS011;7545;52.092;7.006;2023-05-15T02:22:52;25.23;;;18.17;;
14907;SDS011;7545;52.092;7.006;2023-05-15T02:25:19;23.35;;;17.40;;
14907;SDS011;7545;52.092;7.006;2023-05-15T02:27:56;25.40;;;19.17;;
14907;SDS011;7545;52.092;7.006;2023-05-15T02:30:32;24.38;;;18.48;;
14907;SDS011;7545;52.092;7.006;2023-05-15T02:35:44;24.42;;;18.15;;
14907;SDS011;7545;52.092;7.006;2023-05-15T02:38:18;23.52;;;17.42;;
14907;SDS011;7545;52.092;7.006;2023-05-15T02:40:47;25.20;;;18.60;;
14907;SDS011;7545;52.092;7.006;2023-05-15T02:43:14;26.08;;;18.83;;
14907;SDS011;7545;52.092;7.006;2023-05-15T02:45:41;27.60;;;17.45;;
14907;SDS011;7545;52.092;7.006;2023-05-15T02:48:09;25.77;;;18.73;;
14907;SDS011;7545;52.092;7.006;2023-05-15T02:50:36;24.70;;;17.75;;
14907;SDS011;7545;52.092;7.006;2023-05-15T02:53:05;24.30;;;18.17;;
14907;SDS011;7545;52.092;7.006;2023-05-15T02:55:32;24.42;;;18.23;;
14907;SDS011;7545;52.092;7.006;2023-05-15T02:57:58;26.58;;;19.17;;
14907;SDS011;7545;52.092;7.006;2023-05-15T03:00:24;27.48;;;19.60;;
14907;SDS011;7545;52.092;7.006;2023-05-15T03:02:49;26.05;;;19.38;;
14907;SDS011;7545;52.092;7.006;2023-05-15T03:05:15;28.90;;;19.73;;
14907;SDS011;7545;52.092;7.006;2023-05-15T03:07:41;27.02;;;18.65;;
14907;SDS011;7545;52.092;7.006;2023-05-15T03:10:06;26.88;;;19.20;;
14907;SDS011;7545;52.092;7.006;2023-05-15T03:12:32;33.92;;;20.33;;
14907;SDS011;7545;52.092;7.006;2023-05-15T03:14:58;33.00;;;21.73;;
14907;SDS011;7545;52.092;7.006;2023-05-15T03:17:24;32.10;;;22.08;;
14907;SDS011;7545;52.092;7.006;2023-05-15T03:19:49;30.98;;;21.83;;
14907;SDS011;7545;52.092;7.006;2023-05-15T03:22:15;33.03;;;21.13;;
14907;SDS011;7545;52.092;7.006;2023-05-15T03:24:40;31.90;;;22.20;;
14907;SDS011;7545;52.092;7.006;2023-05-15T03:27:06;32.92;;;20.70;;
14907;SDS011;7545;52.092;7.006;2023-05-15T03:29:32;29.33;;;20.45;;
14907;SDS011;7545;52.092;7.006;2023-05-15T03:31:57;32.75;;;21.77;;
14907;SDS011;7545;52.092;7.006;2023-05-15T03:34:23;33.67;;;21.42;;
14907;SDS011;7545;52.092;7.006;2023-05-15T03:36:48;32.15;;;22.23;;
14907;SDS011;7545;52.092;7.006;2023-05-15T03:39:14;28.33;;;20.33;;
14907;SDS011;7545;52.092;7.006;2023-05-15T03:41:40;36.42;;;21.10;;
14907;SDS011;7545;52.092;7.006;2023-05-15T03:44:05;29.52;;;21.30;;
14907;SDS011;7545;52.092;7.006;2023-05-15T03:46:31;30.55;;;20.73;;
14907;SDS011;7545;52.092;7.006;2023-05-15T03:48:56;34.83;;;21.80;;
14907;SDS011;7545;52.092;7.006;2023-05-15T03:51:22;32.58;;;22.83;;
14907;SDS011;7545;52.092;7.006;2023-05-15T03:53:48;30.80;;;22.38;;
14907;SDS011;7545;52.092;7.006;2023-05-15T03:56:14;35.20;;;21.73;;
14907;SDS011;7545;52.092;7.006;2023-05-15T03:58:40;32.78;;;20.25;;
14907;SDS011;7545;52.092;7.006;2023-05-15T04:01:05;30.33;;;20.63;;
14907;SDS011;7545;52.092;7.006;2023-05-15T04:03:31;29.60;;;21.65;;
14907;SDS011;7545;52.092;7.006;2023-05-15T04:05:57;29.67;;;20.38;;
14907;SDS011;7545;52.092;7.006;2023-05-15T04:08:22;31.58;;;21.60;;
14907;SDS011;7545;52.092;7.006;2023-05-15T04:10:48;31.15;;;21.33;;
14907;SDS011;7545;52.092;7.006;2023-05-15T04:13:14;29.83;;;20.52;;
14907;SDS011;7545;52.092;7.006;2023-05-15T04:15:39;29.92;;;20.30;;
14907;SDS011;7545;52.092;7.006;2023-05-15T04:18:05;30.02;;;20.25;;
14907;SDS011;7545;52.092;7.006;2023-05-15T04:20:31;33.13;;;20.85;;
14907;SDS011;7545;52.092;7.006;2023-05-15T04:22:57;32.42;;;21.45;;
14907;SDS011;7545;52.092;7.006;2023-05-15T04:25:23;30.90;;;20.52;;
14907;SDS011;7545;52.092;7.006;2023-05-15T04:27:49;30.70;;;20.65;;
14907;SDS011;7545;52.092;7.006;2023-05-15T04:30:15;26.92;;;18.75;;
14907;SDS011;7545;52.092;7.006;2023-05-15T04:32:41;29.10;;;19.33;;
14907;SDS011;7545;52.092;7.006;2023-05-15T04:35:08;29.35;;;20.85;;
14907;SDS011;7545;52.092;7.006;2023-05-15T04:37:38;28.17;;;18.38;;
14907;SDS011;7545;52.092;7.006;2023-05-15T04:40:04;31.27;;;20.75;;
14907;SDS011;7545;52.092;7.006;2023-05-15T04:42:32;30.50;;;19.17;;
14907;SDS011;7545;52.092;7.006;2023-05-15T04:44:57;26.70;;;18.88;;
14907;SDS011;7545;52.092;7.006;2023-05-15T04:47:24;27.20;;;18.98;;
14907;SDS011;7545;52.092;7.006;2023-05-15T04:49:49;29.50;;;19.90;;
14907;SDS011;7545;52.092;7.006;2023-05-15T04:52:15;27.35;;;19.33;;
14907;SDS011;7545;52.092;7.006;2023-05-15T04:54:41;30.60;;;21.20;;
14907;SDS011;7545;52.092;7.006;2023-05-15T04:57:07;31.08;;;21.00;;
14907;SDS011;7545;52.092;7.006;2023-05-15T04:59:33;28.48;;;20.27;;
14907;SDS011;7545;52.092;7.006;2023-05-15T05:01:59;28.55;;;20.05;;
14907;SDS011;7545;52.092;7.006;2023-05-15T05:04:25;30.00;;;20.20;;
14907;SDS011;7545;52.092;7.006;2023-05-15T05:06:51;26.30;;;18.52;;
14907;SDS011;7545;52.092;7.006;2023-05-15T05:09:17;29.42;;;20.27;;
14907;SDS011;7545;52.092;7.006;2023-05-15T05:11:43;26.20;;;18.08;;
14907;SDS011;7545;52.092;7.006;2023-05-15T05:14:10;27.63;;;20.10;;
14907;SDS011;7545;52.092;7.006;2023-05-15T05:16:36;27.88;;;19.38;;
14907;SDS011;7545;52.092;7.006;2023-05-15T05:19:02;27.15;;;20.33;;
14907;SDS011;7545;52.092;7.006;2023-05-15T05:21:29;25.45;;;18.50;;
14907;SDS011;7545;52.092;7.006;2023-05-15T05:23:55;26.25;;;18.42;;
14907;SDS011;7545;52.092;7.006;2023-05-15T05:26:20;24.92;;;16.70;;
14907;SDS011;7545;52.092;7.006;2023-05-15T05:28:46;23.92;;;17.27;;
14907;SDS011;7545;52.092;7.006;2023-05-15T05:31:12;24.92;;;17.38;;
14907;SDS011;7545;52.092;7.006;2023-05-15T05:33:38;24.95;;;16.85;;
14907;SDS011;7545;52.092;7.006;2023-05-15T05:36:03;28.80;;;19.48;;
14907;SDS011;7545;52.092;7.006;2023-05-15T05:38:29;30.33;;;19.35;;
14907;SDS011;7545;52.092;7.006;2023-05-15T05:40:56;27.45;;;19.88;;
14907;SDS011;7545;52.092;7.006;2023-05-15T05:43:22;28.63;;;18.90;;
14907;SDS011;7545;52.092;7.006;2023-05-15T05:45:49;27.00;;;18.67;;
14907;SDS011;7545;52.092;7.006;2023-05-15T05:48:15;26.30;;;18.00;;
14907;SDS011;7545;52.092;7.006;2023-05-15T05:50:40;27.55;;;19.42;;
14907;SDS011;7545;52.092;7.006;2023-05-15T05:53:06;27.85;;;19.95;;
14907;SDS011;7545;52.092;7.006;2023-05-15T05:55:32;25.05;;;18.33;;
14907;SDS011;7545;52.092;7.006;2023-05-15T05:57:57;28.33;;;18.42;;
14907;SDS011;7545;52.092;7.006;2023-05-15T06:00:23;24.50;;;17.08;;
14907;SDS011;7545;52.092;7.006;2023-05-15T06:02:51;23.98;;;18.13;;
14907;SDS011;7545;52.092;7.006;2023-05-15T06:05:22;25.85;;;18.42;;
14907;SDS011;7545;52.092;7.006;2023-05-15T06:07:49;22.02;;;16.52;;
14907;SDS011;7545;52.092;7.006;2023-05-15T06:10:15;22.40;;;16.77;;
14907;SDS011;7545;52.092;7.006;2023-05-15T06:12:41;24.08;;;16.63;;
14907;SDS011;7545;52.092;7.006;2023-05-15T06:15:07;24.00;;;18.15;;
14907;SDS011;7545;52.092;7.006;2023-05-15T06:17:32;25.80;;;18.15;;
14907;SDS011;7545;52.092;7.006;2023-05-15T06:19:58;26.33;;;18.15;;
14907;SDS011;7545;52.092;7.006;2023-05-15T06:22:23;26.00;;;17.60;;
14907;SDS011;7545;52.092;7.006;2023-05-15T06:24:49;26.23;;;17.98;;
14907;SDS011;7545;52.092;7.006;2023-05-15T06:27:15;26.70;;;19.00;;
14907;SDS011;7545;52.092;7.006;2023-05-15T06:29:40;29.63;;;20.13;;
14907;SDS011;7545;52.092;7.006;2023-05-15T06:32:06;30.05;;;20.55;;
14907;SDS011;7545;52.092;7.006;2023-05-15T06:34:35;33.78;;;21.02;;
14907;SDS011;7545;52.092;7.006;2023-05-15T06:37:00;31.52;;;20.90;;
14907;SDS011;7545;52.092;7.006;2023-05-15T06:39:26;31.95;;;20.83;;
14907;SDS011;7545;52.092;7.006;2023-05-15T06:41:52;35.53;;;21.42;;
14907;SDS011;7545;52.092;7.006;2023-05-15T06:44:22;29.60;;;20.02;;
14907;SDS011;7545;52.092;7.006;2023-05-15T06:46:47;28.63;;;19.40;;
14907;SDS011;7545;52.092;7.006;2023-05-15T06:49:13;27.25;;;18.48;;
14907;SDS011;7545;52.092;7.006;2023-05-15T06:51:39;29.00;;;18.70;;
14907;SDS011;7545;52.092;7.006;2023-05-15T06:54:04;28.08;;;19.38;;
14907;SDS011;7545;52.092;7.006;2023-05-15T06:56:30;29.40;;;19.50;;
14907;SDS011;7545;52.092;7.006;2023-05-15T06:58:56;29.40;;;20.13;;
14907;SDS011;7545;52.092;7.006;2023-05-15T07:01:22;32.95;;;22.23;;
14907;SDS011;7545;52.092;7.006;2023-05-15T07:03:47;27.90;;;19.45;;
14907;SDS011;7545;52.092;7.006;2023-05-15T07:06:13;31.38;;;20.75;;
14907;SDS011;7545;52.092;7.006;2023-05-15T07:08:38;28.05;;;19.10;;
14907;SDS011;7545;52.092;7.006;2023-05-15T07:11:04;28.38;;;19.25;;
14907;SDS011;7545;52.092;7.006;2023-05-15T07:13:30;26.40;;;18.85;;
14907;SDS011;7545;52.092;7.006;2023-05-15T07:15:55;26.70;;;19.35;;
14907;SDS011;7545;52.092;7.006;2023-05-15T07:18:21;27.98;;;19.30;;
14907;SDS011;7545;52.092;7.006;2023-05-15T07:20:49;29.92;;;19.77;;
14907;SDS011;7545;52.092;7.006;2023-05-15T07:23:15;29.85;;;19.23;;
14907;SDS011;7545;52.092;7.006;2023-05-15T07:25:41;29.00;;;19.05;;
14907;SDS011;7545;52.092;7.006;2023-05-15T07:28:06;25.30;;;17.17;;
14907;SDS011;7545;52.092;7.006;2023-05-15T07:30:32;23.67;;;16.10;;
14907;SDS011;7545;52.092;7.006;2023-05-15T07:32:58;27.17;;;17.23;;
14907;SDS011;7545;52.092;7.006;2023-05-15T07:35:23;30.00;;;18.25;;
14907;SDS011;7545;52.092;7.006;2023-05-15T07:37:49;26.95;;;19.08;;
14907;SDS011;7545;52.092;7.006;2023-05-15T07:40:15;29.88;;;19.25;;
14907;SDS011;7545;52.092;7.006;2023-05-15T07:42:44;24.55;;;18.40;;
14907;SDS011;7545;52.092;7.006;2023-05-15T07:45:09;26.10;;;19.15;;
14907;SDS011;7545;52.092;7.006;2023-05-15T07:47:35;23.15;;;17.38;;
14907;SDS011;7545;52.092;7.006;2023-05-15T07:50:01;24.52;;;17.63;;
14907;SDS011;7545;52.092;7.006;2023-05-15T07:52:27;22.15;;;17.25;;
14907;SDS011;7545;52.092;7.006;2023-05-15T07:54:52;23.83;;;17.05;;
14907;SDS011;7545;52.092;7.006;2023-05-15T07:57:18;24.33;;;16.50;;
14907;SDS011;7545;52.092;7.006;2023-05-15T07:59:43;22.42;;;17.17;;
14907;SDS011;7545;52.092;7.006;2023-05-15T08:02:09;23.05;;;16.38;;
14907;SDS011;7545;52.092;7.006;2023-05-15T08:04:35;22.83;;;16.38;;
14907;SDS011;7545;52.092;7.006;2023-05-15T08:07:00;24.48;;;17.30;;
14907;SDS011;7545;52.092;7.006;2023-05-15T08:09:26;22.83;;;16.65;;
14907;SDS011;7545;52.092;7.006;2023-05-15T08:11:54;23.10;;;16.90;;
14907;SDS011;7545;52.092;7.006;2023-05-15T08:14:20;25.48;;;17.55;;
14907;SDS011;7545;52.092;7.006;2023-05-15T08:16:48;24.80;;;16.63;;
14907;SDS011;7545;52.092;7.006;2023-05-15T08:19:14;23.48;;;17.27;;
14907;SDS011;7545;52.092;7.006;2023-05-15T08:21:40;24.90;;;17.17;;
14907;SDS011;7545;52.092;7.006;2023-05-15T08:24:05;26.73;;;17.90;;
14907;SDS011;7545;52.092;7.006;2023-05-15T08:26:31;23.05;;;17.08;;
14907;SDS011;7545;52.092;7.006;2023-05-15T08:28:57;22.63;;;16.95;;
14907;SDS011;7545;52.092;7.006;2023-05-15T08:31:22;25.98;;;18.30;;
14907;SDS011;7545;52.092;7.006;2023-05-15T08:33:48;24.63;;;16.10;;
14907;SDS011;7545;52.092;7.006;2023-05-15T08:36:13;22.77;;;16.58;;
14907;SDS011;7545;52.092;7.006;2023-05-15T08:38:42;23.40;;;16.17;;
14907;SDS011;7545;52.092;7.006;2023-05-15T08:41:10;20.75;;;16.50;;
14907;SDS011;7545;52.092;7.006;2023-05-15T08:44:07;21.15;;;16.13;;
14907;SDS011;7545;52.092;7.006;2023-05-15T08:46:35;23.17;;;15.85;;
14907;SDS011;7545;52.092;7.006;2023-05-15T08:49:07;21.50;;;15.48;;
14907;SDS011;7545;52.092;7.006;2023-05-15T08:51:39;20.20;;;14.48;;
14907;SDS011;7545;52.092;7.006;2023-05-15T08:54:05;20.38;;;14.57;;
14907;SDS011;7545;52.092;7.006;2023-05-15T08:56:31;23.02;;;16.50;;
14907;SDS011;7545;52.092;7.006;2023-05-15T08:58:56;21.67;;;15.45;;
14907;SDS011;7545;52.092;7.006;2023-05-15T09:01:22;24.75;;;15.88;;
14907;SDS011;7545;52.092;7.006;2023-05-15T09:03:49;19.42;;;14.60;;
14907;SDS011;7545;52.092;7.006;2023-05-15T09:06:14;21.25;;;14.52;;
14907;SDS011;7545;52.092;7.006;2023-05-15T09:08:41;19.83;;;14.02;;
14907;SDS011;7545;52.092;7.006;2023-05-15T09:11:07;16.70;;;12.73;;
14907;SDS011;7545;52.092;7.006;2023-05-15T09:13:33;19.77;;;12.05;;
14907;SDS011;7545;52.092;7.006;2023-05-15T09:15:59;14.73;;;11.20;;
14907;SDS011;7545;52.092;7.006;2023-05-15T09:18:25;15.80;;;11.48;;
14907;SDS011;7545;52.092;7.006;2023-05-15T09:20:50;16.77;;;12.50;;
14907;SDS011;7545;52.092;7.006;2023-05-15T09:23:26;17.52;;;12.13;;
14907;SDS011;7545;52.092;7.006;2023-05-15T09:25:52;14.15;;;11.25;;
14907;SDS011;7545;52.092;7.006;2023-05-15T09:28:27;13.85;;;11.27;;
14907;SDS011;7545;52.092;7.006;2023-05-15T09:33:30;11.63;;;9.65;;
14907;SDS011;7545;52.092;7.006;2023-05-15T09:36:00;13.80;;;9.85;;
14907;SDS011;7545;52.092;7.006;2023-05-15T09:38:26;12.30;;;8.95;;
14907;SDS011;7545;52.092;7.006;2023-05-15T09:41:02;14.57;;;10.45;;
14907;SDS011;7545;52.092;7.006;2023-05-15T09:43:32;12.48;;;10.43;;
14907;SDS011;7545;52.092;7.006;2023-05-15T09:46:01;12.77;;;10.52;;
14907;SDS011;7545;52.092;7.006;2023-05-15T09:48:28;11.65;;;8.65;;
14907;SDS011;7545;52.092;7.006;2023-05-15T09:50:54;10.10;;;8.52;;
14907;SDS011;7545;52.092;7.006;2023-05-15T09:53:21;9.52;;;8.43;;
14907;SDS011;7545;52.092;7.006;2023-05-15T09:55:47;10.77;;;8.93;;
14907;SDS011;7545;52.092;7.006;2023-05-15T09:58:16;11.75;;;8.23;;
14907;SDS011;7545;52.092;7.006;2023-05-15T10:00:43;10.18;;;7.78;;
14907;SDS011;7545;52.092;7.006;2023-05-15T10:03:10;10.77;;;8.70;;
14907;SDS011;7545;52.092;7.006;2023-05-15T10:05:36;11.55;;;9.18;;
14907;SDS011;7545;52.092;7.006;2023-05-15T10:08:03;11.45;;;9.57;;
14907;SDS011;7545;52.092;7.006;2023-05-15T10:10:30;13.13;;;9.32;;
14907;SDS011;7545;52.092;7.006;2023-05-15T10:12:57;13.90;;;9.18;;
14907;SDS011;7545;52.092;7.006;2023-05-15T10:15:25;11.43;;;9.00;;
14907;SDS011;7545;52.092;7.006;2023-05-15T10:17:52;10.70;;;7.55;;
14907;SDS011;7545;52.092;7.006;2023-05-15T10:20:19;7.70;;;6.90;;
14907;SDS011;7545;52.092;7.006;2023-05-15T10:22:47;7.85;;;6.03;;
14907;SDS011;7545;52.092;7.006;2023-05-15T10:25:20;10.60;;;6.75;;
14907;SDS011;7545;52.092;7.006;2023-05-15T10:28:00;8.25;;;6.88;;
14907;SDS011;7545;52.092;7.006;2023-05-15T10:30:27;10.05;;;6.72;;
14907;SDS011;7545;52.092;7.006;2023-05-15T10:32:55;7.35;;;6.00;;
14907;SDS011;7545;52.092;7.006;2023-05-15T10:35:21;8.45;;;6.45;;
14907;SDS011;7545;52.092;7.006;2023-05-15T10:37:47;7.53;;;6.78;;
14907;SDS011;7545;52.092;7.006;2023-05-15T10:40:14;7.38;;;5.45;;
14907;SDS011;7545;52.092;7.006;2023-05-15T10:42:41;10.20;;;5.75;;
14907;SDS011;7545;52.092;7.006;2023-05-15T10:45:08;8.25;;;5.18;;
14907;SDS011;7545;52.092;7.006;2023-05-15T10:47:35;9.38;;;5.50;;
14907;SDS011;7545;52.092;7.006;2023-05-15T10:50:02;5.15;;;4.65;;
14907;SDS011;7545;52.092;7.006;2023-05-15T10:52:32;6.07;;;4.38;;
14907;SDS011;7545;52.092;7.006;2023-05-15T10:54:59;7.57;;;5.47;;
14907;SDS011;7545;52.092;7.006;2023-05-15T10:57:27;8.95;;;5.07;;
14907;SDS011;7545;52.092;7.006;2023-05-15T10:59:53;5.28;;;4.20;;
14907;SDS011;7545;52.092;7.006;2023-05-15T11:02:20;5.95;;;5.20;;
14907;SDS011;7545;52.092;7.006;2023-05-15T11:04:57;6.03;;;4.95;;
14907;SDS011;7545;52.092;7.006;2023-05-15T11:07:25;6.28;;;4.85;;
14907;SDS011;7545;52.092;7.006;2023-05-15T11:10:29;5.63;;;4.75;;
14907;SDS011;7545;52.092;7.006;2023-05-15T11:12:54;4.85;;;4.03;;
14907;SDS011;7545;52.092;7.006;2023-05-15T11:15:42;5.13;;;4.60;;
14907;SDS011;7545;52.092;7.006;2023-05-15T11:18:09;5.65;;;4.28;;
14907;SDS011;7545;52.092;7.006;2023-05-15T11:20:39;4.80;;;4.05;;
14907;SDS011;7545;52.092;7.006;2023-05-15T11:23:06;4.35;;;3.88;;
14907;SDS011;7545;52.092;7.006;2023-05-15T11:25:32;7.75;;;4.85;;
14907;SDS011;7545;52.092;7.006;2023-05-15T11:27:59;10.20;;;5.45;;
14907;SDS011;7545;52.092;7.006;2023-05-15T11:30:34;4.78;;;4.32;;
14907;SDS011;7545;52.092;7.006;2023-05-15T11:33:01;7.22;;;5.50;;
14907;SDS011;7545;52.092;7.006;2023-05-15T11:35:42;9.15;;;5.45;;
14907;SDS011;7545;52.092;7.006;2023-05-15T11:43:26;7.22;;;5.30;;
14907;SDS011;7545;52.092;7.006;2023-05-15T11:45:53;5.57;;;4.93;;
14907;SDS011;7545;52.092;7.006;2023-05-15T11:48:22;7.97;;;5.88;;
14907;SDS011;7545;52.092;7.006;2023-05-15T11:50:57;11.18;;;5.97;;
14907;SDS011;7545;52.092;7.006;2023-05-15T11:53:22;6.78;;;6.07;;
14907;SDS011;7545;52.092;7.006;2023-05-15T11:55:50;8.50;;;6.18;;
14907;SDS011;7545;52.092;7.006;2023-05-15T11:58:18;7.57;;;6.50;;
14907;SDS011;7545;52.092;7.006;2023-05-15T12:00:46;7.90;;;5.63;;
14907;SDS011;7545;52.092;7.006;2023-05-15T12:03:24;7.82;;;6.68;;
14907;SDS011;7545;52.092;7.006;2023-05-15T12:05:51;7.95;;;5.32;;
14907;SDS011;7545;52.092;7.006;2023-05-15T12:08:18;6.75;;;5.57;;
14907;SDS011;7545;52.092;7.006;2023-05-15T12:10:48;7.47;;;5.30;;
14907;SDS011;7545;52.092;7.006;2023-05-15T12:13:14;5.60;;;4.93;;
14907;SDS011;7545;52.092;7.006;2023-05-15T12:15:43;6.07;;;5.07;;
14907;SDS011;7545;52.092;7.006;2023-05-15T12:18:09;8.38;;;4.70;;
14907;SDS011;7545;52.092;7.006;2023-05-15T12:20:37;7.85;;;4.80;;
14907;SDS011;7545;52.092;7.006;2023-05-15T12:23:05;6.55;;;4.68;;
14907;SDS011;7545;52.092;7.006;2023-05-15T12:25:32;5.75;;;4.55;;
14907;SDS011;7545;52.092;7.006;2023-05-15T12:28:00;5.47;;;4.85;;
14907;SDS011;7545;52.092;7.006;2023-05-15T12:30:27;5.88;;;4.32;;
14907;SDS011;7545;52.092;7.006;2023-05-15T12:33:00;7.80;;;4.88;;
14907;SDS011;7545;52.092;7.006;2023-05-15T12:35:28;7.50;;;4.82;;
14907;SDS011;7545;52.092;7.006;2023-05-15T12:37:54;5.07;;;4.63;;
14907;SDS011;7545;52.092;7.006;2023-05-15T12:40:20;6.38;;;5.13;;
14907;SDS011;7545;52.092;7.006;2023-05-15T12:42:50;10.13;;;4.00;;
14907;SDS011;7545;52.092;7.006;2023-05-15T12:45:20;8.00;;;4.30;;
14907;SDS011;7545;52.092;7.006;2023-05-15T12:47:47;5.25;;;4.43;;
14907;SDS011;7545;52.092;7.006;2023-05-15T12:52:50;8.00;;;4.38;;
14907;SDS011;7545;52.092;7.006;2023-05-15T12:57:54;4.55;;;3.67;;
14907;SDS011;7545;52.092;7.006;2023-05-15T13:00:21;5.82;;;3.90;;
14907;SDS011;7545;52.092;7.006;2023-05-15T13:02:57;5.00;;;4.38;;
14907;SDS011;7545;52.092;7.006;2023-05-15T13:05:23;6.45;;;4.65;;
14907;SDS011;7545;52.092;7.006;2023-05-15T13:07:50;6.60;;;5.13;;
14907;SDS011;7545;52.092;7.006;2023-05-15T13:10:22;6.68;;;5.97;;
14907;SDS011;7545;52.092;7.006;2023-05-15T13:12:49;6.25;;;5.00;;
14907;SDS011;7545;52.092;7.006;2023-05-15T13:20:40;5.45;;;4.70;;
14907;SDS011;7545;52.092;7.006;2023-05-15T13:23:07;7.13;;;4.85;;
14907;SDS011;7545;52.092;7.006;2023-05-15T13:25:34;6.75;;;4.68;;
14907;SDS011;7545;52.092;7.006;2023-05-15T13:28:00;7.13;;;5.60;;
14907;SDS011;7545;52.092;7.006;2023-05-15T13:30:27;8.13;;;6.07;;
14907;SDS011;7545;52.092;7.006;2023-05-15T13:32:53;7.88;;;6.40;;
14907;SDS011;7545;52.092;7.006;2023-05-15T13:35:22;10.00;;;5.60;;
14907;SDS011;7545;52.092;7.006;2023-05-15T13:37:48;5.95;;;5.35;;
14907;SDS011;7545;52.092;7.006;2023-05-15T13:40:14;5.57;;;5.03;;
14907;SDS011;7545;52.092;7.006;2023-05-15T13:42:40;8.82;;;5.30;;
14907;SDS011;7545;52.092;7.006;2023-05-15T13:45:07;6.00;;;4.53;;
14907;SDS011;7545;52.092;7.006;2023-05-15T13:47:33;5.32;;;3.92;;
14907;SDS011;7545;52.092;7.006;2023-05-15T13:49:59;3.72;;;3.42;;
14907;SDS011;7545;52.092;7.006;2023-05-15T13:52:26;3.92;;;3.35;;
14907;SDS011;7545;52.092;7.006;2023-05-15T13:54:52;4.03;;;2.85;;
14907;SDS011;7545;52.092;7.006;2023-05-15T13:57:18;4.93;;;3.20;;
14907;SDS011;7545;52.092;7.006;2023-05-15T13:59:44;3.03;;;2.53;;
14907;SDS011;7545;52.092;7.006;2023-05-15T14:02:10;3.33;;;2.60;;
14907;SDS011;7545;52.092;7.006;2023-05-15T14:04:35;3.90;;;2.22;;
14907;SDS011;7545;52.092;7.006;2023-05-15T14:07:01;3.70;;;2.50;;
14907;SDS011;7545;52.092;7.006;2023-05-15T14:09:27;3.38;;;2.42;;
14907;SDS011;7545;52.092;7.006;2023-05-15T14:11:52;2.10;;;1.83;;
14907;SDS011;7545;52.092;7.006;2023-05-15T14:14:18;2.10;;;1.65;;
14907;SDS011;7545;52.092;7.006;2023-05-15T14:16:43;1.95;;;1.67;;
14907;SDS011;7545;52.092;7.006;2023-05-15T14:19:09;1.52;;;1.42;;
14907;SDS011;7545;52.092;7.006;2023-05-15T14:21:35;4.22;;;1.73;;
14907;SDS011;7545;52.092;7.006;2023-05-15T14:24:00;4.85;;;2.00;;
14907;SDS011;7545;52.092;7.006;2023-05-15T14:26:31;1.90;;;1.70;;
14907;SDS011;7545;52.092;7.006;2023-05-15T14:28:57;2.33;;;1.52;;
14907;SDS011;7545;52.092;7.006;2023-05-15T14:31:23;2.60;;;1.50;;
14907;SDS011;7545;52.092;7.006;2023-05-15T14:33:50;1.70;;;1.60;;
14907;SDS011;7545;52.092;7.006;2023-05-15T14:36:15;1.73;;;1.63;;
14907;SDS011;7545;52.092;7.006;2023-05-15T14:38:41;1.98;;;1.55;;
14907;SDS011;7545;52.092;7.006;2023-05-15T14:41:11;3.28;;;1.98;;
14907;SDS011;7545;52.092;7.006;2023-05-15T14:43:37;1.80;;;1.60;;
14907;SDS011;7545;52.092;7.006;2023-05-15T14:46:03;1.92;;;1.60;;
14907;SDS011;7545;52.092;7.006;2023-05-15T14:48:29;1.35;;;1.13;;
14907;SDS011;7545;52.092;7.006;2023-05-15T14:50:55;2.78;;;1.25;;
14907;SDS011;7545;52.092;7.006;2023-05-15T14:53:22;2.67;;;1.67;;
14907;SDS011;7545;52.092;7.006;2023-05-15T14:55:48;3.38;;;2.17;;
14907;SDS011;7545;52.092;7.006;2023-05-15T14:58:14;3.72;;;2.35;;
14907;SDS011;7545;52.092;7.006;2023-05-15T15:00:40;2.53;;;2.10;;
14907;SDS011;7545;52.092;7.006;2023-05-15T15:03:05;3.97;;;2.03;;
14907;SDS011;7545;52.092;7.006;2023-05-15T15:05:32;3.80;;;2.80;;
14907;SDS011;7545;52.092;7.006;2023-05-15T15:10:27;5.40;;;3.25;;
14907;SDS011;7545;52.092;7.006;2023-05-15T15:12:54;5.10;;;3.13;;